sensor_id;sensor_type;location;lat;lon;timestamp;P1;durP1;ratioP1;P2;durP2;ratioP2
51066;SDS011;37112;45.892;-123.962;2023-06-14T00:00:42;53.30;;;8.00;;
51066;SDS011;37112;45.892;-123.962;2023-06-14T00:03:22;26.30;;;5.40;;
51066;SDS011;37112;45.892;-123.962;2023-06-14T00:05:51;35.00;;;8.60;;
51066;SDS011;37112;45.892;-123.962;2023-06-14T00:08:26;42.60;;;8.30;;
51066;SDS011;37112;45.892;-123.962;2023-06-14T00:10:54;35.80;;;7.40;;
51066;SDS011;37112;45.892;-123.962;2023-06-14T00:13:13;43.10;;;8.20;;
51066;SDS011;37112;45.892;-123.962;2023-06-14T00:15:40;38.50;;;8.10;;
51066;SDS011;37112;45.892;-123.962;2023-06-14T00:18:05;50.70;;;9.10;;
51066;SDS011;37112;45.892;-123.962;2023-06-14T00:20:40;43.00;;;7.40;;
51066;SDS011;37112;45.892;-123.962;2023-06-14T00:23:08;50.30;;;9.20;;
51066;SDS011;37112;45.892;-123.962;2023-06-14T00:28:03;50.20;;;7.90;;
51066;SDS011;37112;45.892;-123.962;2023-06-14T00:30:39;36.90;;;6.70;;
51066;SDS011;37112;45.892;-123.962;2023-06-14T00:35:33;53.50;;;11.90;;
51066;SDS011;37112;45.892;-123.962;2023-06-14T00:38:07;53.90;;;9.90;;
51066;SDS011;37112;45.892;-123.962;2023-06-14T00:40:34;43.30;;;8.50;;
51066;SDS011;37112;45.892;-123.962;2023-06-14T00:43:10;54.50;;;9.90;;
51066;SDS011;37112;45.892;-123.962;2023-06-14T00:45:45;90.30;;;17.30;;
51066;SDS011;37112;45.892;-123.962;2023-06-14T00:48:12;96.60;;;19.40;;
51066;SDS011;37112;45.892;-123.962;2023-06-14T00:50:48;59.40;;;11.80;;
51066;SDS011;37112;45.892;-123.962;2023-06-14T00:53:23;85.50;;;13.60;;
51066;SDS011;37112;45.892;-123.962;2023-06-14T00:55:51;57.30;;;10.50;;
51066;SDS011;37112;45.892;-123.962;2023-06-14T00:58:14;57.60;;;10.80;;
51066;SDS011;37112;45.892;-123.962;2023-06-14T01:00:50;53.00;;;9.70;;
51066;SDS011;37112;45.892;-123.962;2023-06-14T01:03:13;39.40;;;8.10;;
51066;SDS011;37112;45.892;-123.962;2023-06-14T01:05:51;71.50;;;11.00;;
51066;SDS011;37112;45.892;-123.962;2023-06-14T01:08:36;57.40;;;9.20;;
51066;SDS011;37112;45.892;-123.962;2023-06-14T01:11:15;66.00;;;12.70;;
51066;SDS011;37112;45.892;-123.962;2023-06-14T01:13:46;60.70;;;10.90;;
51066;SDS011;37112;45.892;-123.962;2023-06-14T01:16:24;87.50;;;16.40;;
51066;SDS011;37112;45.892;-123.962;2023-06-14T01:19:00;53.80;;;11.30;;
51066;SDS011;37112;45.892;-123.962;2023-06-14T01:21:25;55.50;;;9.40;;
51066;SDS011;37112;45.892;-123.962;2023-06-14T01:23:55;72.30;;;9.70;;
51066;SDS011;37112;45.892;-123.962;2023-06-14T01:26:26;42.60;;;8.90;;
51066;SDS011;37112;45.892;-123.962;2023-06-14T01:28:53;58.90;;;10.00;;
51066;SDS011;37112;45.892;-123.962;2023-06-14T01:31:29;41.40;;;7.50;;
51066;SDS011;37112;45.892;-123.962;2023-06-14T01:34:10;28.80;;;6.40;;
51066;SDS011;37112;45.892;-123.962;2023-06-14T01:36:45;30.90;;;6.30;;
51066;SDS011;37112;45.892;-123.962;2023-06-14T01:39:08;37.10;;;6.60;;
51066;SDS011;37112;45.892;-123.962;2023-06-14T01:41:45;37.00;;;6.90;;
51066;SDS011;37112;45.892;-123.962;2023-06-14T01:44:20;39.20;;;7.60;;
51066;SDS011;37112;45.892;-123.962;2023-06-14T01:46:49;64.00;;;11.10;;
51066;SDS011;37112;45.892;-123.962;2023-06-14T01:49:24;59.50;;;9.20;;
51066;SDS011;37112;45.892;-123.962;2023-06-14T01:51:52;48.20;;;9.10;;
51066;SDS011;37112;45.892;-123.962;2023-06-14T01:54:26;40.40;;;7.90;;
51066;SDS011;37112;45.892;-123.962;2023-06-14T01:57:00;52.30;;;10.40;;
51066;SDS011;37112;45.892;-123.962;2023-06-14T01:59:35;59.70;;;10.20;;
51066;SDS011;37112;45.892;-123.962;2023-06-14T02:02:08;74.10;;;14.20;;
51066;SDS011;37112;45.892;-123.962;2023-06-14T02:04:42;52.10;;;8.70;;
51066;SDS011;37112;45.892;-123.962;2023-06-14T02:07:07;61.50;;;10.80;;
51066;SDS011;37112;45.892;-123.962;2023-06-14T02:09:30;61.80;;;12.20;;
51066;SDS011;37112;45.892;-123.962;2023-06-14T02:12:02;76.70;;;12.10;;
51066;SDS011;37112;45.892;-123.962;2023-06-14T02:14:30;62.10;;;11.40;;
51066;SDS011;37112;45.892;-123.962;2023-06-14T02:16:57;59.50;;;11.60;;
51066;SDS011;37112;45.892;-123.962;2023-06-14T02:19:27;79.80;;;15.40;;
51066;SDS011;37112;45.892;-123.962;2023-06-14T02:21:50;117.60;;;18.80;;
51066;SDS011;37112;45.892;-123.962;2023-06-14T02:24:05;96.40;;;17.20;;
51066;SDS011;37112;45.892;-123.962;2023-06-14T02:26:24;69.20;;;13.50;;
51066;SDS011;37112;45.892;-123.962;2023-06-14T02:28:48;79.30;;;14.80;;
51066;SDS011;37112;45.892;-123.962;2023-06-14T02:31:22;85.00;;;14.20;;
51066;SDS011;37112;45.892;-123.962;2023-06-14T02:33:41;83.70;;;16.40;;
51066;SDS011;37112;45.892;-123.962;2023-06-14T02:35:55;100.40;;;18.30;;
51066;SDS011;37112;45.892;-123.962;2023-06-14T02:38:13;119.60;;;19.00;;
51066;SDS011;37112;45.892;-123.962;2023-06-14T02:40:32;77.20;;;14.20;;
51066;SDS011;37112;45.892;-123.962;2023-06-14T02:42:45;115.50;;;21.60;;
51066;SDS011;37112;45.892;-123.962;2023-06-14T02:45:02;75.80;;;15.60;;
51066;SDS011;37112;45.892;-123.962;2023-06-14T02:47:28;95.30;;;17.50;;
51066;SDS011;37112;45.892;-123.962;2023-06-14T02:50:04;91.90;;;16.50;;
51066;SDS011;37112;45.892;-123.962;2023-06-14T02:52:43;104.60;;;17.90;;
51066;SDS011;37112;45.892;-123.962;2023-06-14T02:55:02;90.30;;;17.40;;
51066;SDS011;37112;45.892;-123.962;2023-06-14T02:57:42;114.70;;;22.70;;
51066;SDS011;37112;45.892;-123.962;2023-06-14T02:59:59;97.00;;;18.20;;
51066;SDS011;37112;45.892;-123.962;2023-06-14T03:02:27;106.60;;;17.40;;
51066;SDS011;37112;45.892;-123.962;2023-06-14T03:05:02;78.30;;;15.10;;
51066;SDS011;37112;45.892;-123.962;2023-06-14T03:07:39;81.10;;;17.10;;
51066;SDS011;37112;45.892;-123.962;2023-06-14T03:09:57;85.80;;;15.40;;
51066;SDS011;37112;45.892;-123.962;2023-06-14T03:12:24;70.50;;;13.40;;
51066;SDS011;37112;45.892;-123.962;2023-06-14T03:14:41;71.50;;;13.10;;
51066;SDS011;37112;45.892;-123.962;2023-06-14T03:17:08;100.80;;;15.90;;
51066;SDS011;37112;45.892;-123.962;2023-06-14T03:19:23;76.70;;;13.40;;
51066;SDS011;37112;45.892;-123.962;2023-06-14T03:21:43;70.80;;;12.60;;
51066;SDS011;37112;45.892;-123.962;2023-06-14T03:24:00;47.60;;;10.20;;
51066;SDS011;37112;45.892;-123.962;2023-06-14T03:26:34;58.70;;;13.00;;
51066;SDS011;37112;45.892;-123.962;2023-06-14T03:29:09;113.40;;;22.10;;
51066;SDS011;37112;45.892;-123.962;2023-06-14T03:31:58;73.60;;;12.70;;
51066;SDS011;37112;45.892;-123.962;2023-06-14T03:34:35;60.20;;;10.70;;
51066;SDS011;37112;45.892;-123.962;2023-06-14T03:37:08;51.00;;;10.30;;
51066;SDS011;37112;45.892;-123.962;2023-06-14T03:39:27;51.70;;;11.10;;
51066;SDS011;37112;45.892;-123.962;2023-06-14T03:42:01;55.00;;;11.40;;
51066;SDS011;37112;45.892;-123.962;2023-06-14T03:44:29;55.40;;;15.30;;
51066;SDS011;37112;45.892;-123.962;2023-06-14T03:47:05;188.70;;;38.40;;
51066;SDS011;37112;45.892;-123.962;2023-06-14T03:49:34;185.30;;;35.70;;
51066;SDS011;37112;45.892;-123.962;2023-06-14T03:51:54;155.00;;;29.20;;
51066;SDS011;37112;45.892;-123.962;2023-06-14T03:54:20;171.00;;;29.90;;
51066;SDS011;37112;45.892;-123.962;2023-06-14T03:57:17;152.00;;;31.60;;
51066;SDS011;37112;45.892;-123.962;2023-06-14T03:59:42;175.20;;;33.40;;
51066;SDS011;37112;45.892;-123.962;2023-06-14T04:02:10;125.60;;;23.90;;
51066;SDS011;37112;45.892;-123.962;2023-06-14T04:04:35;127.30;;;23.70;;
51066;SDS011;37112;45.892;-123.962;2023-06-14T04:07:14;123.60;;;23.80;;
51066;SDS011;37112;45.892;-123.962;2023-06-14T04:09:35;112.40;;;19.20;;
51066;SDS011;37112;45.892;-123.962;2023-06-14T04:11:53;91.50;;;20.90;;
51066;SDS011;37112;45.892;-123.962;2023-06-14T04:14:16;66.00;;;14.20;;
51066;SDS011;37112;45.892;-123.962;2023-06-14T04:16:30;49.70;;;9.90;;
51066;SDS011;37112;45.892;-123.962;2023-06-14T04:18:48;58.90;;;11.00;;
51066;SDS011;37112;45.892;-123.962;2023-06-14T04:21:22;64.50;;;11.40;;
51066;SDS011;37112;45.892;-123.962;2023-06-14T04:23:48;60.80;;;10.80;;
51066;SDS011;37112;45.892;-123.962;2023-06-14T04:26:08;49.10;;;9.20;;
51066;SDS011;37112;45.892;-123.962;2023-06-14T04:28:40;60.80;;;10.20;;
51066;SDS011;37112;45.892;-123.962;2023-06-14T04:31:15;66.40;;;12.60;;
51066;SDS011;37112;45.892;-123.962;2023-06-14T04:33:50;76.10;;;13.30;;
51066;SDS011;37112;45.892;-123.962;2023-06-14T04:36:15;83.50;;;17.30;;
51066;SDS011;37112;45.892;-123.962;2023-06-14T04:38:51;100.50;;;16.20;;
51066;SDS011;37112;45.892;-123.962;2023-06-14T04:41:09;91.20;;;14.00;;
51066;SDS011;37112;45.892;-123.962;2023-06-14T04:43:34;74.20;;;14.70;;
51066;SDS011;37112;45.892;-123.962;2023-06-14T04:46:08;52.70;;;9.20;;
51066;SDS011;37112;45.892;-123.962;2023-06-14T04:48:26;74.90;;;13.10;;
51066;SDS011;37112;45.892;-123.962;2023-06-14T04:50:45;83.00;;;14.20;;
51066;SDS011;37112;45.892;-123.962;2023-06-14T04:53:13;58.90;;;12.10;;
51066;SDS011;37112;45.892;-123.962;2023-06-14T04:55:33;69.60;;;11.60;;
51066;SDS011;37112;45.892;-123.962;2023-06-14T04:58:00;76.10;;;12.00;;
51066;SDS011;37112;45.892;-123.962;2023-06-14T05:00:26;75.20;;;13.20;;
51066;SDS011;37112;45.892;-123.962;2023-06-14T05:02:49;105.70;;;16.40;;
51066;SDS011;37112;45.892;-123.962;2023-06-14T05:05:24;113.00;;;19.90;;
51066;SDS011;37112;45.892;-123.962;2023-06-14T05:07:59;86.70;;;17.00;;
51066;SDS011;37112;45.892;-123.962;2023-06-14T05:10:21;40.30;;;8.50;;
51066;SDS011;37112;45.892;-123.962;2023-06-14T05:12:58;57.80;;;10.30;;
51066;SDS011;37112;45.892;-123.962;2023-06-14T05:15:34;55.70;;;10.10;;
51066;SDS011;37112;45.892;-123.962;2023-06-14T05:17:54;59.90;;;9.60;;
51066;SDS011;37112;45.892;-123.962;2023-06-14T05:20:13;55.10;;;11.70;;
51066;SDS011;37112;45.892;-123.962;2023-06-14T05:22:37;50.20;;;9.90;;
51066;SDS011;37112;45.892;-123.962;2023-06-14T05:25:04;46.30;;;8.90;;
51066;SDS011;37112;45.892;-123.962;2023-06-14T05:27:30;80.40;;;12.30;;
51066;SDS011;37112;45.892;-123.962;2023-06-14T05:29:47;83.40;;;16.30;;
51066;SDS011;37112;45.892;-123.962;2023-06-14T05:32:23;99.30;;;19.90;;
51066;SDS011;37112;45.892;-123.962;2023-06-14T05:34:47;71.30;;;13.20;;
51066;SDS011;37112;45.892;-123.962;2023-06-14T05:37:05;79.10;;;12.90;;
51066;SDS011;37112;45.892;-123.962;2023-06-14T05:39:39;67.30;;;12.50;;
51066;SDS011;37112;45.892;-123.962;2023-06-14T05:42:13;102.80;;;19.70;;
51066;SDS011;37112;45.892;-123.962;2023-06-14T05:44:48;102.00;;;17.40;;
51066;SDS011;37112;45.892;-123.962;2023-06-14T05:47:24;97.60;;;15.80;;
51066;SDS011;37112;45.892;-123.962;2023-06-14T05:49:58;96.60;;;16.50;;
51066;SDS011;37112;45.892;-123.962;2023-06-14T05:52:15;111.20;;;19.50;;
51066;SDS011;37112;45.892;-123.962;2023-06-14T05:57:23;94.20;;;16.50;;
51066;SDS011;37112;45.892;-123.962;2023-06-14T06:00:01;122.20;;;18.90;;
51066;SDS011;37112;45.892;-123.962;2023-06-14T06:02:19;89.00;;;18.90;;
51066;SDS011;37112;45.892;-123.962;2023-06-14T06:04:56;83.20;;;19.10;;
51066;SDS011;37112;45.892;-123.962;2023-06-14T06:07:30;90.80;;;18.20;;
51066;SDS011;37112;45.892;-123.962;2023-06-14T06:10:11;82.60;;;14.90;;
51066;SDS011;37112;45.892;-123.962;2023-06-14T06:12:46;81.10;;;15.30;;
51066;SDS011;37112;45.892;-123.962;2023-06-14T06:15:23;70.20;;;15.10;;
51066;SDS011;37112;45.892;-123.962;2023-06-14T06:17:52;67.50;;;13.30;;
51066;SDS011;37112;45.892;-123.962;2023-06-14T06:20:17;61.20;;;10.50;;
51066;SDS011;37112;45.892;-123.962;2023-06-14T06:22:56;42.70;;;9.60;;
51066;SDS011;37112;45.892;-123.962;2023-06-14T06:25:30;34.20;;;9.10;;
51066;SDS011;37112;45.892;-123.962;2023-06-14T06:28:06;38.30;;;9.40;;
51066;SDS011;37112;45.892;-123.962;2023-06-14T06:30:32;23.40;;;7.60;;
51066;SDS011;37112;45.892;-123.962;2023-06-14T06:33:06;34.30;;;8.50;;
51066;SDS011;37112;45.892;-123.962;2023-06-14T06:35:40;24.00;;;7.40;;
51066;SDS011;37112;45.892;-123.962;2023-06-14T06:38:15;65.50;;;13.50;;
51066;SDS011;37112;45.892;-123.962;2023-06-14T06:40:38;144.40;;;25.30;;
51066;SDS011;37112;45.892;-123.962;2023-06-14T06:43:12;40.70;;;11.40;;
51066;SDS011;37112;45.892;-123.962;2023-06-14T06:45:48;40.80;;;8.80;;
51066;SDS011;37112;45.892;-123.962;2023-06-14T06:48:22;17.90;;;5.80;;
51066;SDS011;37112;45.892;-123.962;2023-06-14T06:50:50;20.00;;;6.00;;
51066;SDS011;37112;45.892;-123.962;2023-06-14T06:53:11;18.30;;;5.40;;
51066;SDS011;37112;45.892;-123.962;2023-06-14T06:55:50;16.50;;;5.20;;
51066;SDS011;37112;45.892;-123.962;2023-06-14T06:58:25;16.50;;;4.10;;
51066;SDS011;37112;45.892;-123.962;2023-06-14T07:00:58;21.40;;;4.60;;
51066;SDS011;37112;45.892;-123.962;2023-06-14T07:03:33;30.40;;;9.70;;
51066;SDS011;37112;45.892;-123.962;2023-06-14T07:06:08;23.50;;;5.90;;
51066;SDS011;37112;45.892;-123.962;2023-06-14T07:08:43;36.50;;;8.90;;
51066;SDS011;37112;45.892;-123.962;2023-06-14T07:11:16;35.00;;;7.40;;
51066;SDS011;37112;45.892;-123.962;2023-06-14T07:13:52;22.90;;;5.80;;
51066;SDS011;37112;45.892;-123.962;2023-06-14T07:16:19;29.80;;;5.60;;
51066;SDS011;37112;45.892;-123.962;2023-06-14T07:21:32;22.30;;;4.60;;
51066;SDS011;37112;45.892;-123.962;2023-06-14T07:24:08;242.20;;;91.40;;
51066;SDS011;37112;45.892;-123.962;2023-06-14T07:26:43;71.70;;;19.20;;
51066;SDS011;37112;45.892;-123.962;2023-06-14T07:29:19;73.50;;;19.30;;
51066;SDS011;37112;45.892;-123.962;2023-06-14T07:31:56;126.60;;;34.80;;
51066;SDS011;37112;45.892;-123.962;2023-06-14T07:34:22;137.80;;;38.20;;
51066;SDS011;37112;45.892;-123.962;2023-06-14T07:36:53;106.20;;;25.10;;
51066;SDS011;37112;45.892;-123.962;2023-06-14T07:39:18;125.70;;;20.60;;
51066;SDS011;37112;45.892;-123.962;2023-06-14T07:41:53;123.80;;;25.80;;
51066;SDS011;37112;45.892;-123.962;2023-06-14T07:44:12;121.20;;;24.10;;
51066;SDS011;37112;45.892;-123.962;2023-06-14T07:46:40;188.10;;;43.20;;
51066;SDS011;37112;45.892;-123.962;2023-06-14T07:49:15;206.70;;;40.70;;
51066;SDS011;37112;45.892;-123.962;2023-06-14T07:51:51;174.00;;;33.80;;
51066;SDS011;37112;45.892;-123.962;2023-06-14T07:54:25;172.80;;;30.50;;
51066;SDS011;37112;45.892;-123.962;2023-06-14T07:57:00;140.50;;;29.70;;
51066;SDS011;37112;45.892;-123.962;2023-06-14T07:59:28;125.50;;;22.20;;
51066;SDS011;37112;45.892;-123.962;2023-06-14T08:02:04;51.50;;;11.70;;
51066;SDS011;37112;45.892;-123.962;2023-06-14T08:04:39;28.80;;;6.80;;
51066;SDS011;37112;45.892;-123.962;2023-06-14T08:07:13;24.50;;;6.20;;
51066;SDS011;37112;45.892;-123.962;2023-06-14T08:09:38;23.20;;;6.20;;
51066;SDS011;37112;45.892;-123.962;2023-06-14T08:12:02;26.40;;;5.90;;
51066;SDS011;37112;45.892;-123.962;2023-06-14T08:14:40;24.40;;;7.20;;
51066;SDS011;37112;45.892;-123.962;2023-06-14T08:17:19;26.00;;;7.20;;
51066;SDS011;37112;45.892;-123.962;2023-06-14T08:19:55;43.90;;;10.30;;
51066;SDS011;37112;45.892;-123.962;2023-06-14T08:22:30;57.40;;;12.20;;
51066;SDS011;37112;45.892;-123.962;2023-06-14T08:25:04;153.80;;;26.50;;
51066;SDS011;37112;45.892;-123.962;2023-06-14T08:27:42;176.10;;;31.40;;
51066;SDS011;37112;45.892;-123.962;2023-06-14T08:30:16;198.50;;;42.20;;
51066;SDS011;37112;45.892;-123.962;2023-06-14T08:32:40;60.30;;;12.60;;
51066;SDS011;37112;45.892;-123.962;2023-06-14T08:35:16;46.20;;;10.50;;
51066;SDS011;37112;45.892;-123.962;2023-06-14T08:37:40;155.60;;;26.50;;
51066;SDS011;37112;45.892;-123.962;2023-06-14T08:40:06;166.50;;;29.90;;
51066;SDS011;37112;45.892;-123.962;2023-06-14T08:42:40;92.70;;;15.70;;
51066;SDS011;37112;45.892;-123.962;2023-06-14T08:45:09;73.90;;;13.60;;
51066;SDS011;37112;45.892;-123.962;2023-06-14T08:47:45;56.20;;;12.10;;
51066;SDS011;37112;45.892;-123.962;2023-06-14T08:50:22;52.90;;;11.30;;
51066;SDS011;37112;45.892;-123.962;2023-06-14T08:53:00;74.10;;;14.10;;
51066;SDS011;37112;45.892;-123.962;2023-06-14T08:55:40;86.00;;;16.60;;
51066;SDS011;37112;45.892;-123.962;2023-06-14T08:58:18;93.70;;;19.40;;
51066;SDS011;37112;45.892;-123.962;2023-06-14T09:00:53;93.90;;;19.10;;
51066;SDS011;37112;45.892;-123.962;2023-06-14T09:03:28;115.70;;;20.40;;
51066;SDS011;37112;45.892;-123.962;2023-06-14T09:06:03;99.20;;;19.60;;
51066;SDS011;37112;45.892;-123.962;2023-06-14T09:08:31;136.30;;;31.90;;
51066;SDS011;37112;45.892;-123.962;2023-06-14T09:10:55;200.90;;;44.00;;
51066;SDS011;37112;45.892;-123.962;2023-06-14T09:13:33;119.80;;;25.30;;
51066;SDS011;37112;45.892;-123.962;2023-06-14T09:16:08;119.40;;;22.80;;
51066;SDS011;37112;45.892;-123.962;2023-06-14T09:18:26;113.40;;;24.50;;
51066;SDS011;37112;45.892;-123.962;2023-06-14T09:21:08;102.60;;;22.50;;
51066;SDS011;37112;45.892;-123.962;2023-06-14T09:23:44;111.20;;;19.30;;
51066;SDS011;37112;45.892;-123.962;2023-06-14T09:26:20;101.40;;;22.10;;
51066;SDS011;37112;45.892;-123.962;2023-06-14T09:28:46;123.50;;;22.20;;
51066;SDS011;37112;45.892;-123.962;2023-06-14T09:31:22;121.30;;;23.00;;
51066;SDS011;37112;45.892;-123.962;2023-06-14T09:33:52;151.80;;;29.30;;
51066;SDS011;37112;45.892;-123.962;2023-06-14T09:36:20;136.50;;;27.10;;
51066;SDS011;37112;45.892;-123.962;2023-06-14T09:38:57;136.10;;;23.80;;
51066;SDS011;37112;45.892;-123.962;2023-06-14T09:41:32;105.50;;;22.00;;
51066;SDS011;37112;45.892;-123.962;2023-06-14T09:44:10;103.30;;;21.10;;
51066;SDS011;37112;45.892;-123.962;2023-06-14T09:46:36;126.60;;;23.10;;
51066;SDS011;37112;45.892;-123.962;2023-06-14T09:49:12;119.60;;;24.70;;
51066;SDS011;37112;45.892;-123.962;2023-06-14T09:51:43;83.50;;;19.00;;
51066;SDS011;37112;45.892;-123.962;2023-06-14T09:54:22;46.70;;;10.60;;
51066;SDS011;37112;45.892;-123.962;2023-06-14T09:56:57;46.10;;;10.90;;
51066;SDS011;37112;45.892;-123.962;2023-06-14T09:59:35;25.10;;;5.80;;
51066;SDS011;37112;45.892;-123.962;2023-06-14T10:02:13;23.50;;;6.40;;
51066;SDS011;37112;45.892;-123.962;2023-06-14T10:04:37;32.70;;;6.70;;
51066;SDS011;37112;45.892;-123.962;2023-06-14T10:07:18;26.70;;;5.60;;
51066;SDS011;37112;45.892;-123.962;2023-06-14T10:09:50;23.40;;;5.60;;
51066;SDS011;37112;45.892;-123.962;2023-06-14T10:12:25;34.30;;;6.10;;
51066;SDS011;37112;45.892;-123.962;2023-06-14T10:15:01;25.20;;;5.90;;
51066;SDS011;37112;45.892;-123.962;2023-06-14T10:17:38;29.30;;;6.10;;
51066;SDS011;37112;45.892;-123.962;2023-06-14T10:20:25;22.90;;;4.60;;
51066;SDS011;37112;45.892;-123.962;2023-06-14T10:23:08;27.20;;;5.40;;
51066;SDS011;37112;45.892;-123.962;2023-06-14T10:25:39;17.20;;;4.70;;
51066;SDS011;37112;45.892;-123.962;2023-06-14T10:28:18;19.40;;;5.00;;
51066;SDS011;37112;45.892;-123.962;2023-06-14T10:31:07;22.90;;;4.80;;
51066;SDS011;37112;45.892;-123.962;2023-06-14T10:33:49;19.60;;;4.80;;
51066;SDS011;37112;45.892;-123.962;2023-06-14T10:38:57;14.90;;;4.20;;
51066;SDS011;37112;45.892;-123.962;2023-06-14T10:41:34;16.00;;;3.60;;
51066;SDS011;37112;45.892;-123.962;2023-06-14T10:47:19;14.90;;;3.70;;
51066;SDS011;37112;45.892;-123.962;2023-06-14T10:49:49;15.10;;;3.60;;
51066;SDS011;37112;45.892;-123.962;2023-06-14T10:52:25;20.00;;;3.90;;
51066;SDS011;37112;45.892;-123.962;2023-06-14T10:54:57;14.00;;;4.20;;
51066;SDS011;37112;45.892;-123.962;2023-06-14T10:57:44;14.70;;;3.70;;
51066;SDS011;37112;45.892;-123.962;2023-06-14T11:00:22;18.60;;;4.30;;
51066;SDS011;37112;45.892;-123.962;2023-06-14T11:06:00;13.10;;;3.80;;
51066;SDS011;37112;45.892;-123.962;2023-06-14T11:14:16;18.50;;;4.40;;
51066;SDS011;37112;45.892;-123.962;2023-06-14T11:16:42;17.50;;;3.70;;
51066;SDS011;37112;45.892;-123.962;2023-06-14T11:19:18;12.50;;;3.30;;
51066;SDS011;37112;45.892;-123.962;2023-06-14T11:21:43;11.20;;;3.10;;
51066;SDS011;37112;45.892;-123.962;2023-06-14T11:24:22;11.30;;;4.30;;
51066;SDS011;37112;45.892;-123.962;2023-06-14T11:26:50;10.40;;;3.70;;
51066;SDS011;37112;45.892;-123.962;2023-06-14T11:29:30;15.70;;;4.00;;
51066;SDS011;37112;45.892;-123.962;2023-06-14T11:32:08;14.20;;;3.90;;
51066;SDS011;37112;45.892;-123.962;2023-06-14T11:36:55;16.00;;;3.90;;
51066;SDS011;37112;45.892;-123.962;2023-06-14T11:39:30;11.80;;;3.80;;
51066;SDS011;37112;45.892;-123.962;2023-06-14T11:42:03;17.10;;;5.00;;
51066;SDS011;37112;45.892;-123.962;2023-06-14T11:44:31;21.50;;;5.30;;
51066;SDS011;37112;45.892;-123.962;2023-06-14T11:47:06;19.20;;;4.60;;
51066;SDS011;37112;45.892;-123.962;2023-06-14T11:49:41;14.80;;;3.90;;
51066;SDS011;37112;45.892;-123.962;2023-06-14T11:52:08;22.20;;;4.20;;
51066;SDS011;37112;45.892;-123.962;2023-06-14T11:54:37;14.90;;;4.10;;
51066;SDS011;37112;45.892;-123.962;2023-06-14T11:57:13;19.30;;;5.80;;
51066;SDS011;37112;45.892;-123.962;2023-06-14T11:59:49;14.90;;;4.40;;
51066;SDS011;37112;45.892;-123.962;2023-06-14T12:02:18;17.30;;;3.80;;
51066;SDS011;37112;45.892;-123.962;2023-06-14T12:04:55;21.00;;;4.60;;
51066;SDS011;37112;45.892;-123.962;2023-06-14T12:07:36;15.10;;;4.20;;
51066;SDS011;37112;45.892;-123.962;2023-06-14T12:10:07;21.30;;;4.50;;
51066;SDS011;37112;45.892;-123.962;2023-06-14T12:12:42;14.60;;;3.70;;
51066;SDS011;37112;45.892;-123.962;2023-06-14T12:15:18;13.60;;;3.90;;
51066;SDS011;37112;45.892;-123.962;2023-06-14T12:17:43;11.00;;;3.50;;
51066;SDS011;37112;45.892;-123.962;2023-06-14T12:20:18;18.90;;;4.70;;
51066;SDS011;37112;45.892;-123.962;2023-06-14T12:22:55;12.50;;;4.40;;
51066;SDS011;37112;45.892;-123.962;2023-06-14T12:25:31;14.60;;;4.80;;
51066;SDS011;37112;45.892;-123.962;2023-06-14T12:28:06;21.20;;;3.90;;
51066;SDS011;37112;45.892;-123.962;2023-06-14T12:30:40;13.90;;;3.90;;
51066;SDS011;37112;45.892;-123.962;2023-06-14T12:33:16;15.20;;;4.50;;
51066;SDS011;37112;45.892;-123.962;2023-06-14T12:35:42;16.50;;;4.10;;
51066;SDS011;37112;45.892;-123.962;2023-06-14T12:38:16;14.30;;;4.00;;
51066;SDS011;37112;45.892;-123.962;2023-06-14T12:40:51;17.90;;;4.30;;
51066;SDS011;37112;45.892;-123.962;2023-06-14T12:43:16;17.40;;;4.30;;
51066;SDS011;37112;45.892;-123.962;2023-06-14T12:45:42;21.80;;;5.00;;
51066;SDS011;37112;45.892;-123.962;2023-06-14T12:48:09;16.50;;;4.50;;
51066;SDS011;37112;45.892;-123.962;2023-06-14T12:50:47;17.70;;;4.10;;
51066;SDS011;37112;45.892;-123.962;2023-06-14T12:53:21;16.50;;;4.10;;
51066;SDS011;37112;45.892;-123.962;2023-06-14T12:55:48;14.10;;;4.00;;
51066;SDS011;37112;45.892;-123.962;2023-06-14T12:58:22;18.60;;;6.10;;
51066;SDS011;37112;45.892;-123.962;2023-06-14T13:00:56;10.10;;;3.80;;
51066;SDS011;37112;45.892;-123.962;2023-06-14T13:03:30;15.90;;;4.40;;
51066;SDS011;37112;45.892;-123.962;2023-06-14T13:05:54;14.20;;;4.80;;
51066;SDS011;37112;45.892;-123.962;2023-06-14T13:08:22;19.60;;;4.50;;
51066;SDS011;37112;45.892;-123.962;2023-06-14T13:10:46;17.50;;;4.00;;
51066;SDS011;37112;45.892;-123.962;2023-06-14T13:13:13;15.00;;;3.60;;
51066;SDS011;37112;45.892;-123.962;2023-06-14T13:15:47;18.90;;;4.80;;
51066;SDS011;37112;45.892;-123.962;2023-06-14T13:18:19;14.30;;;3.60;;
51066;SDS011;37112;45.892;-123.962;2023-06-14T13:20:53;16.60;;;4.90;;
51066;SDS011;37112;45.892;-123.962;2023-06-14T13:23:28;16.80;;;4.40;;
51066;SDS011;37112;45.892;-123.962;2023-06-14T13:25:55;15.20;;;4.00;;
51066;SDS011;37112;45.892;-123.962;2023-06-14T13:28:32;23.80;;;4.30;;
51066;SDS011;37112;45.892;-123.962;2023-06-14T13:31:00;23.70;;;4.50;;
51066;SDS011;37112;45.892;-123.962;2023-06-14T13:33:35;24.90;;;5.10;;
51066;SDS011;37112;45.892;-123.962;2023-06-14T13:35:57;22.80;;;5.30;;
51066;SDS011;37112;45.892;-123.962;2023-06-14T13:38:31;22.90;;;6.00;;
51066;SDS011;37112;45.892;-123.962;2023-06-14T13:40:59;17.70;;;4.70;;
51066;SDS011;37112;45.892;-123.962;2023-06-14T13:43:22;19.90;;;5.80;;
51066;SDS011;37112;45.892;-123.962;2023-06-14T13:45:56;26.50;;;5.90;;
51066;SDS011;37112;45.892;-123.962;2023-06-14T13:48:32;97.90;;;19.20;;
51066;SDS011;37112;45.892;-123.962;2023-06-14T13:50:49;151.40;;;29.20;;
51066;SDS011;37112;45.892;-123.962;2023-06-14T13:53:22;211.60;;;42.50;;
51066;SDS011;37112;45.892;-123.962;2023-06-14T13:58:07;233.60;;;45.40;;
51066;SDS011;37112;45.892;-123.962;2023-06-14T14:00:35;223.20;;;41.30;;
51066;SDS011;37112;45.892;-123.962;2023-06-14T14:03:09;210.80;;;38.50;;
51066;SDS011;37112;45.892;-123.962;2023-06-14T14:05:43;195.50;;;37.60;;
51066;SDS011;37112;45.892;-123.962;2023-06-14T14:08:05;182.80;;;32.60;;
51066;SDS011;37112;45.892;-123.962;2023-06-14T14:10:40;171.70;;;33.10;;
51066;SDS011;37112;45.892;-123.962;2023-06-14T14:13:15;179.00;;;30.50;;
51066;SDS011;37112;45.892;-123.962;2023-06-14T14:15:49;170.80;;;31.80;;
51066;SDS011;37112;45.892;-123.962;2023-06-14T14:18:14;153.70;;;27.10;;
51066;SDS011;37112;45.892;-123.962;2023-06-14T14:20:45;157.10;;;30.70;;
51066;SDS011;37112;45.892;-123.962;2023-06-14T14:23:08;127.90;;;22.60;;
51066;SDS011;37112;45.892;-123.962;2023-06-14T14:25:42;154.40;;;28.40;;
51066;SDS011;37112;45.892;-123.962;2023-06-14T14:28:05;155.00;;;29.60;;
51066;SDS011;37112;45.892;-123.962;2023-06-14T14:30:33;136.50;;;26.30;;
51066;SDS011;37112;45.892;-123.962;2023-06-14T14:32:53;140.10;;;22.30;;
51066;SDS011;37112;45.892;-123.962;2023-06-14T14:35:22;164.30;;;29.50;;